Juan De La Cosa — ECJE — position and weather

sailwx.info

Track history (hours):
 
Tides and Currents Weather Stations Pressure Air Temp Water Temp Dewpoint Dewpoint Depression Visibility Wind Speed Wind Dir Waves Ship Positions

Juan De La Cosa

Last reported at 2014-Nov-09 20:33 UTC. Time now 2014-Nov-28 13:28 UTC.
Position N 43°34' W 003°12'.
Warning: this ship's position is 18 days out of date.

Length 75 m; draft 4.5 m.

Type: Medical transport. MMSI: 224612000.

Date/timePositionNaut miles runAvg speedWind from/ knotsBaromVisibWave heightAir tempDewpointWater temp
2014-Nov-09 20:33N 43°34' W 003°12'7 6.5
2014-Nov-09 19:33N 43°34' W 003°03'7 6.8
2014-Nov-09 18:33N 43°33' W 002°53'7 6.7
2014-Nov-09 17:33N 43°33' W 002°44'6 6.5
2014-Nov-09 16:33N 43°33' W 002°35'8 8.2
2014-Nov-09 15:32N 43°33' W 002°47'8 8.3
2014-Nov-09 14:33N 43°33' W 002°58'9 8.6
2014-Nov-09 13:33N 43°34' W 003°10'9 8.9
2014-Nov-09 12:33N 43°35' W 003°22'9 8.9
2014-Nov-09 11:30N 43°35' W 003°35'65 8.7
2014-Nov-09 04:04N 43°40' W 005°04'22 8.9
2014-Nov-09 01:33N 43°42' W 005°35'9 8.9
2014-Nov-09 00:33N 43°43' W 005°47'9 8.8
2014-Nov-08 23:31N 43°44' W 005°60'17 8.8
2014-Nov-08 21:31N 43°46' W 006°24'27 1.8
2014-Nov-08 06:33N 43°45' W 005°46'7 7.4
2014-Nov-08 05:33N 43°44' W 005°36'7 7.1
2014-Nov-08 04:33N 43°43' W 005°26'7 7.0
2014-Nov-08 03:33N 43°43' W 005°16'8 6.9
2014-Nov-08 02:25N 43°41' W 005°06'6 6.6
2014-Nov-08 01:33N 43°40' W 004°58'  
2014-Oct-31 01:15N 43°60' W 003°01'6 7.8
2014-Oct-31 00:32N 44°04' W 002°55'10 7.8
2014-Oct-30 23:18N 44°10' W 002°45'6 7.5
2014-Oct-30 22:33N 44°14' W 002°39'8 7.7
2014-Oct-30 21:33N 44°21' W 002°39'  
Track history (hours):
 
Tides and Currents Weather Stations Pressure Air Temp Water Temp Dewpoint Dewpoint Depression Visibility Wind Speed Wind Dir Waves Ship Positions

Juan De La Cosa

Last reported at 2014-Nov-09 20:33 UTC. Time now 2014-Nov-28 13:28 UTC.
Position N 43°34' W 003°12'.
Warning: this ship's position is 18 days out of date.

Length 75 m; draft 4.5 m.

Type: Medical transport. MMSI: 224612000.

Date/timePositionNaut miles runAvg speedWind from/ knotsBaromVisibWave heightAir tempDewpointWater temp
2014-Nov-09 20:33N 43°34' W 003°12'7 6.5
2014-Nov-09 19:33N 43°34' W 003°03'7 6.8
2014-Nov-09 18:33N 43°33' W 002°53'7 6.7
2014-Nov-09 17:33N 43°33' W 002°44'6 6.5
2014-Nov-09 16:33N 43°33' W 002°35'8 8.2
2014-Nov-09 15:32N 43°33' W 002°47'8 8.3
2014-Nov-09 14:33N 43°33' W 002°58'9 8.6
2014-Nov-09 13:33N 43°34' W 003°10'9 8.9
2014-Nov-09 12:33N 43°35' W 003°22'9 8.9
2014-Nov-09 11:30N 43°35' W 003°35'65 8.7
2014-Nov-09 04:04N 43°40' W 005°04'22 8.9
2014-Nov-09 01:33N 43°42' W 005°35'9 8.9
2014-Nov-09 00:33N 43°43' W 005°47'9 8.8
2014-Nov-08 23:31N 43°44' W 005°60'17 8.8
2014-Nov-08 21:31N 43°46' W 006°24'27 1.8
2014-Nov-08 06:33N 43°45' W 005°46'7 7.4
2014-Nov-08 05:33N 43°44' W 005°36'7 7.1
2014-Nov-08 04:33N 43°43' W 005°26'7 7.0
2014-Nov-08 03:33N 43°43' W 005°16'8 6.9
2014-Nov-08 02:25N 43°41' W 005°06'6 6.6
2014-Nov-08 01:33N 43°40' W 004°58'  
2014-Oct-31 01:15N 43°60' W 003°01'6 7.8
2014-Oct-31 00:32N 44°04' W 002°55'10 7.8
2014-Oct-30 23:18N 44°10' W 002°45'6 7.5
2014-Oct-30 22:33N 44°14' W 002°39'8 7.7
2014-Oct-30 21:33N 44°21' W 002°39'  

Dump ship's entire track history